Time;durP1;ratioP1;P1;durP2;ratioP2;P2;SDS_P1;SDS_P2;PMS_P1;PMS_P2;Temp;Humidity;BMP_temperature;BMP_pressure;BME280_temperature;BME280_humidity;BME280_pressure;Samples;Min_cycle;Max_cycle;Signal;HPM_P1;HPM_P2
2023/03/31 00:01:47;;;;;;;5.50;2.80;;;14.90;47.30;;;;;;5059102;28;20384;-84
2023/03/31 00:04:13;;;;;;;5.33;3.03;;;14.80;47.40;;;;;;5055341;28;20392;-85
2023/03/31 00:06:40;;;;;;;6.75;3.25;;;14.80;47.00;;;;;;5059212;28;20400;-86
2023/03/31 00:09:12;;;;;;;4.80;2.60;;;14.90;46.00;;;;;;5076890;28;20387;-85
2023/03/31 00:11:39;;;;;;;5.30;3.10;;;15.20;45.90;;;;;;5057508;28;20395;-86
2023/03/31 00:14:08;;;;;;;7.05;3.55;;;15.00;45.30;;;;;;5077401;28;20391;-85
2023/03/31 00:16:35;;;;;;;3.72;3.03;;;15.10;45.70;;;;;;5078130;28;20390;-85
2023/03/31 00:19:01;;;;;;;4.78;3.20;;;14.90;46.80;;;;;;5080731;28;20486;-85
2023/03/31 00:21:35;;;;;;;4.90;2.80;;;14.90;46.70;;;;;;5078894;28;20821;-85
2023/03/31 00:24:11;;;;;;;5.32;3.00;;;15.00;46.40;;;;;;5076168;28;20406;-85
2023/03/31 00:26:37;;;;;;;7.90;3.40;;;15.00;45.80;;;;;;5078549;28;20380;-85
2023/03/31 00:29:04;;;;;;;4.72;3.00;;;15.00;46.20;;;;;;5078852;28;20403;-85
2023/03/31 00:31:30;;;;;;;4.28;3.47;;;15.00;46.60;;;;;;5059197;28;20391;-85
2023/03/31 00:33:56;;;;;;;6.60;3.15;;;14.90;48.80;;;;;;5062437;28;20391;-85
2023/03/31 00:36:28;;;;;;;7.43;3.63;;;14.90;50.30;;;;;;5078541;28;20380;-85
2023/03/31 00:38:59;;;;;;;7.95;3.53;;;14.80;50.50;;;;;;5075423;28;20412;-85
2023/03/31 00:41:25;;;;;;;7.00;3.38;;;14.80;50.40;;;;;;5059607;28;20388;-86
2023/03/31 00:44:32;;;;;;;4.90;3.55;;;14.70;53.10;;;;;;5070602;28;20392;-86
2023/03/31 00:47:05;;;;;;;8.10;3.72;;;14.50;55.20;;;;;;4980236;28;21014;-85
2023/03/31 00:49:38;;;;;;;6.33;3.70;;;14.50;58.10;;;;;;4995760;28;20461;-85
2023/03/31 00:52:12;;;;;;;5.32;3.80;;;14.40;62.10;;;;;;5026187;28;20463;-85
2023/03/31 00:54:39;;;;;;;6.47;3.90;;;14.20;69.10;;;;;;5059615;28;20465;-86
2023/03/31 00:57:06;;;;;;;6.00;3.42;;;14.10;75.50;;;;;;5060864;28;20383;-86
2023/03/31 00:59:40;;;;;;;6.70;4.00;;;13.90;86.20;;;;;;5078930;28;20435;-85
2023/03/31 01:02:06;;;;;;;6.80;4.30;;;13.80;91.00;;;;;;5069648;28;20376;-86
2023/03/31 01:04:37;;;;;;;7.30;4.38;;;13.70;98.90;;;;;;5073103;28;20521;-85
2023/03/31 01:07:26;;;;;;;9.60;4.00;;;13.50;98.50;;;;;;5070786;28;20380;-84
2023/03/31 01:09:58;;;;;;;6.03;4.10;;;13.40;99.90;;;;;;5088970;28;20364;-85
2023/03/31 01:12:25;;;;;;;6.32;3.90;;;13.40;99.90;;;;;;5094036;28;20396;-85
2023/03/31 01:14:51;;;;;;;4.63;3.90;;;13.30;99.90;;;;;;5075563;28;20384;-86
2023/03/31 01:17:20;;;;;;;4.55;3.80;;;13.30;99.90;;;;;;5081829;28;20387;-86
2023/03/31 01:20:12;;;;;;;7.13;3.75;;;13.30;99.90;;;;;;5080966;28;20425;-86
2023/03/31 01:22:58;;;;;;;5.95;4.15;;;13.20;99.90;;;;;;5062281;28;20441;-86
2023/03/31 01:25:32;;;;;;;4.50;3.40;;;13.30;99.90;;;;;;5080854;28;20380;-86
2023/03/31 01:28:10;;;;;;;6.10;4.37;;;13.20;99.90;;;;;;5061531;28;20403;-86
2023/03/31 01:30:55;;;;;;;10.15;4.30;;;13.10;99.90;;;;;;5061622;28;20384;-86
2023/03/31 01:33:45;;;;;;;8.50;4.05;;;13.00;99.90;;;;;;5062959;28;20893;-86
2023/03/31 01:36:45;;;;;;;8.65;3.90;;;12.90;99.90;;;;;;5062675;28;20518;-86
2023/03/31 01:39:38;;;;;;;6.18;3.97;;;12.90;99.90;;;;;;5109374;22;20808;-78
2023/03/31 01:42:04;;;;;;;7.13;4.20;;;13.10;99.90;;;;;;5093373;28;20374;-80
2023/03/31 01:44:45;;;;;;;8.53;4.67;;;13.10;99.90;;;;;;5075108;28;20411;-79
2023/03/31 01:47:31;;;;;;;5.07;3.90;;;13.10;99.90;;;;;;5093510;28;20430;-79
2023/03/31 01:50:17;;;;;;;7.10;3.97;;;13.10;99.90;;;;;;5075835;28;20468;-79
2023/03/31 01:53:00;;;;;;;6.75;4.40;;;13.00;99.90;;;;;;5093508;28;20378;-80
2023/03/31 01:55:36;;;;;;;5.68;3.85;;;13.00;99.90;;;;;;5075208;28;20378;-80
2023/03/31 01:58:05;;;;;;;5.80;4.27;;;13.20;99.90;;;;;;5093436;28;20458;-79
2023/03/31 02:00:40;;;;;;;5.88;3.60;;;13.10;99.90;;;;;;5075632;28;20386;-80
2023/03/31 02:03:31;;;;;;;8.30;4.03;;;13.00;99.90;;;;;;5073811;28;20432;-80
2023/03/31 02:06:02;;;;;;;8.98;5.10;;;12.80;99.90;;;;;;5089791;28;20928;-79
2023/03/31 02:08:32;;;;;;;5.90;3.75;;;12.60;99.90;;;;;;5081530;28;20383;-79
2023/03/31 02:10:58;;;;;;;7.47;3.90;;;12.50;99.90;;;;;;5086046;28;20374;-79
2023/03/31 02:13:26;;;;;;;5.15;3.75;;;12.40;99.90;;;;;;5093214;28;20752;-79
2023/03/31 02:15:56;;;;;;;6.40;4.40;;;12.40;99.90;;;;;;5074872;28;20377;-79
2023/03/31 02:18:26;;;;;;;7.07;4.13;;;12.40;99.90;;;;;;5092871;28;20455;-79
2023/03/31 02:20:56;;;;;;;6.65;3.90;;;12.50;99.90;;;;;;5093430;28;20401;-79
2023/03/31 02:23:25;;;;;;;6.30;4.07;;;12.30;99.90;;;;;;5093441;28;20382;-80
2023/03/31 02:25:56;;;;;;;4.60;4.20;;;12.30;99.90;;;;;;5093240;28;20786;-80
2023/03/31 02:28:25;;;;;;;7.20;4.37;;;12.10;99.90;;;;;;5093545;28;20763;-79
2023/03/31 02:31:04;;;;;;;5.10;3.88;;;12.00;99.90;;;;;;5093270;28;20377;-79
2023/03/31 02:33:30;;;;;;;6.57;4.43;;;12.00;99.90;;;;;;5093279;28;20375;-80
2023/03/31 02:35:57;;;;;;;5.23;3.67;;;12.00;99.90;;;;;;5092575;28;20396;-80
2023/03/31 02:38:23;;;;;;;6.68;4.15;;;11.90;99.90;;;;;;5092468;28;20441;-80
2023/03/31 02:40:49;;;;;;;8.05;4.32;;;11.90;99.90;;;;;;5093022;28;20370;-79
2023/03/31 02:43:14;;;;;;;6.43;4.15;;;11.80;99.90;;;;;;5092977;28;20950;-80
2023/03/31 02:45:49;;;;;;;5.67;4.07;;;11.80;99.90;;;;;;5092352;28;20425;-79
2023/03/31 02:48:19;;;;;;;7.03;4.30;;;11.80;99.90;;;;;;5092807;28;20378;-79
2023/03/31 02:51:00;;;;;;;7.00;4.70;;;11.70;99.90;;;;;;5092599;28;20393;-79
2023/03/31 02:53:47;;;;;;;6.30;4.20;;;11.60;99.90;;;;;;5093166;28;20395;-79
2023/03/31 02:56:34;;;;;;;7.03;4.73;;;11.60;99.90;;;;;;5092736;28;20378;-79
2023/03/31 02:59:22;;;;;;;7.97;4.70;;;11.60;99.90;;;;;;5074541;28;20409;-79
2023/03/31 03:02:20;;;;;;;6.60;4.60;;;11.60;99.90;;;;;;5092559;28;20431;-79
2023/03/31 03:05:05;;;;;;;5.65;4.20;;;11.60;99.90;;;;;;5092539;28;20381;-79
2023/03/31 03:07:56;;;;;;;6.82;4.50;;;11.50;99.90;;;;;;5073587;28;20408;-78
2023/03/31 03:10:45;;;;;;;5.88;4.30;;;11.60;99.90;;;;;;5091652;28;20421;-79
2023/03/31 03:13:34;;;;;;;8.55;4.70;;;11.60;99.90;;;;;;5091928;28;20378;-80
2023/03/31 03:16:06;;;;;;;6.43;4.22;;;11.50;99.90;;;;;;5092774;28;20377;-79
2023/03/31 03:18:32;;;;;;;9.77;4.90;;;11.50;99.90;;;;;;5073786;28;20840;-79
2023/03/31 03:20:57;;;;;;;6.03;4.43;;;11.50;99.90;;;;;;5073414;28;20382;-80
2023/03/31 03:23:23;;;;;;;6.90;4.97;;;11.50;99.90;;;;;;5092114;28;20821;-80
2023/03/31 03:25:48;;;;;;;8.20;4.60;;;11.50;99.90;;;;;;5091620;28;20501;-80
2023/03/31 03:28:14;;;;;;;9.25;4.80;;;11.50;99.90;;;;;;5091981;28;20381;-79
2023/03/31 03:30:40;;;;;;;9.63;4.90;;;11.50;99.90;;;;;;5091618;28;20765;-79
2023/03/31 03:33:05;;;;;;;8.50;5.00;;;11.50;99.90;;;;;;5091876;28;20382;-79
2023/03/31 03:35:32;;;;;;;9.10;5.00;;;11.60;99.90;;;;;;5073569;28;20417;-79
2023/03/31 03:37:58;;;;;;;8.52;4.93;;;11.60;99.90;;;;;;5074225;28;20418;-79
2023/03/31 03:40:23;;;;;;;7.97;5.20;;;11.60;99.90;;;;;;5094376;28;20446;-79
2023/03/31 03:42:49;;;;;;;8.25;5.20;;;11.60;99.90;;;;;;5093030;28;20381;-79
2023/03/31 03:45:14;;;;;;;5.28;4.30;;;11.60;99.90;;;;;;5093102;28;20831;-79
2023/03/31 03:47:40;;;;;;;5.60;4.70;;;11.50;99.90;;;;;;5074619;28;20752;-78
2023/03/31 03:50:06;;;;;;;6.47;4.20;;;11.50;99.90;;;;;;5093259;28;20940;-79
2023/03/31 03:52:31;;;;;;;9.03;4.50;;;11.50;99.90;;;;;;5096630;28;20393;-79
2023/03/31 03:54:57;;;;;;;6.23;4.80;;;11.60;99.90;;;;;;5096293;28;20848;-79
2023/03/31 03:57:22;;;;;;;4.97;4.13;;;11.70;99.90;;;;;;5096266;28;20378;-79
2023/03/31 03:59:48;;;;;;;6.82;5.00;;;11.80;99.90;;;;;;5096156;28;20389;-79
2023/03/31 04:02:14;;;;;;;6.43;4.30;;;11.70;99.90;;;;;;5096533;28;20390;-79
2023/03/31 04:04:39;;;;;;;5.57;4.57;;;11.70;99.90;;;;;;5097522;28;20377;-79
2023/03/31 04:07:05;;;;;;;4.87;4.37;;;11.60;99.90;;;;;;5086625;28;20385;-79
2023/03/31 04:09:30;;;;;;;6.68;4.32;;;11.80;99.90;;;;;;5098260;28;20879;-79
2023/03/31 04:11:56;;;;;;;6.18;5.20;;;11.70;99.90;;;;;;5095901;28;20397;-80
2023/03/31 04:14:21;;;;;;;6.73;4.40;;;11.70;99.90;;;;;;5077239;28;20382;-80
2023/03/31 04:16:47;;;;;;;6.73;4.80;;;11.60;99.90;;;;;;5094806;28;20388;-79
2023/03/31 04:19:16;;;;;;;6.07;4.53;;;11.60;99.90;;;;;;5095450;28;20405;-79
2023/03/31 04:21:44;;;;;;;6.03;4.90;;;11.60;99.90;;;;;;5097856;28;20378;-80
2023/03/31 04:24:11;;;;;;;6.72;4.60;;;11.60;99.90;;;;;;5077297;28;20398;-79
2023/03/31 04:26:43;;;;;;;6.80;4.22;;;11.70;99.90;;;;;;5095197;28;20378;-78
2023/03/31 04:29:11;;;;;;;8.65;4.40;;;11.80;99.90;;;;;;5077513;28;20389;-79
2023/03/31 04:31:43;;;;;;;7.22;4.80;;;11.90;99.90;;;;;;5079268;28;20386;-79
2023/03/31 04:34:13;;;;;;;7.75;4.60;;;11.80;99.90;;;;;;5081693;28;20383;-79
2023/03/31 04:36:41;;;;;;;6.90;4.53;;;11.80;99.90;;;;;;5100934;28;20386;-79
2023/03/31 04:39:09;;;;;;;6.57;4.03;;;11.80;99.90;;;;;;5082411;28;21003;-80
2023/03/31 04:41:35;;;;;;;5.25;3.40;;;12.20;99.90;;;;;;5095004;28;20378;-78
2023/03/31 04:44:01;;;;;;;4.10;3.00;;;13.60;99.90;;;;;;5094799;28;20379;-79
2023/03/31 04:46:26;;;;;;;4.15;2.78;;;14.00;92.80;;;;;;5077919;28;20412;-83
2023/03/31 04:48:52;;;;;;;3.22;2.78;;;14.20;88.00;;;;;;5097137;28;20390;-82
2023/03/31 04:51:19;;;;;;;6.30;3.88;;;14.30;90.40;;;;;;5097738;28;20382;-82
2023/03/31 04:53:45;;;;;;;6.40;3.80;;;14.00;99.90;;;;;;5079541;28;20420;-82
2023/03/31 04:56:11;;;;;;;5.05;3.67;;;13.70;99.90;;;;;;5079126;28;20393;-82
2023/03/31 04:58:37;;;;;;;4.40;4.00;;;13.40;99.90;;;;;;5082455;28;20402;-83
2023/03/31 05:01:05;;;;;;;5.87;4.10;;;13.20;99.90;;;;;;5099681;28;20382;-83
2023/03/31 05:03:31;;;;;;;7.30;4.50;;;13.00;99.90;;;;;;5098098;28;20378;-82
2023/03/31 05:05:56;;;;;;;6.32;4.30;;;12.80;99.90;;;;;;5098393;28;20374;-81
2023/03/31 05:08:22;;;;;;;6.57;4.30;;;12.70;99.90;;;;;;5097055;28;20412;-84
2023/03/31 05:10:48;;;;;;;6.40;4.30;;;12.60;99.90;;;;;;5097507;28;20410;-82
2023/03/31 05:13:13;;;;;;;7.97;5.15;;;12.40;99.90;;;;;;5080428;28;20390;-82
2023/03/31 05:15:39;;;;;;;7.83;4.90;;;12.30;99.90;;;;;;5076428;28;20383;-81
2023/03/31 05:18:06;;;;;;;7.38;4.65;;;12.30;99.90;;;;;;5094373;28;20483;-81
2023/03/31 05:20:31;;;;;;;7.78;5.40;;;12.10;99.90;;;;;;5078600;28;20383;-83
2023/03/31 05:22:57;;;;;;;8.63;5.40;;;11.80;99.90;;;;;;5096542;28;20387;-82
2023/03/31 05:25:22;;;;;;;5.87;4.83;;;11.60;99.90;;;;;;5095920;28;20378;-81
2023/03/31 05:27:48;;;;;;;9.40;5.50;;;11.60;99.90;;;;;;5095550;28;20475;-81
2023/03/31 05:30:15;;;;;;;6.00;5.37;;;11.40;99.90;;;;;;5076492;28;20451;-81
2023/03/31 05:32:41;;;;;;;9.73;6.10;;;11.30;99.90;;;;;;5094374;28;20389;-81
2023/03/31 05:35:07;;;;;;;8.40;5.50;;;11.10;99.90;;;;;;5080484;28;20492;-83
2023/03/31 05:37:33;;;;;;;9.13;6.78;;;11.10;99.90;;;;;;5077724;28;20408;-83
2023/03/31 05:39:58;;;;;;;6.10;5.05;;;11.10;99.90;;;;;;5102864;28;20489;-81
2023/03/31 05:42:24;;;;;;;6.33;5.00;;;11.30;99.90;;;;;;5096269;28;20736;-81
2023/03/31 05:44:50;;;;;;;4.70;4.03;;;11.40;99.90;;;;;;5075904;28;20464;-81
2023/03/31 05:47:16;;;;;;;7.30;4.10;;;11.70;99.90;;;;;;5095270;28;20370;-81
2023/03/31 05:49:42;;;;;;;5.10;4.60;;;11.90;99.90;;;;;;5076358;28;20384;-82
2023/03/31 05:52:08;;;;;;;6.07;3.88;;;11.70;99.90;;;;;;5076230;28;20382;-82
2023/03/31 05:54:34;;;;;;;5.07;3.30;;;11.70;99.90;;;;;;5076189;28;20429;-82
2023/03/31 05:56:59;;;;;;;5.60;3.70;;;12.00;99.90;;;;;;5094415;28;20382;-82
2023/03/31 05:59:25;;;;;;;7.27;3.60;;;11.90;99.90;;;;;;5094214;28;20402;-82
2023/03/31 06:01:51;;;;;;;8.75;3.83;;;12.00;99.90;;;;;;5075896;28;20418;-81
2023/03/31 06:04:16;;;;;;;6.72;4.05;;;12.00;99.90;;;;;;5094434;28;20410;-82
2023/03/31 06:06:43;;;;;;;7.10;4.60;;;12.00;99.90;;;;;;5091104;28;20388;-83
2023/03/31 06:09:11;;;;;;;5.88;5.10;;;11.90;99.90;;;;;;5085217;28;20443;-83
2023/03/31 06:11:37;;;;;;;8.83;5.70;;;11.40;99.90;;;;;;5089529;28;20481;-83
2023/03/31 06:14:02;;;;;;;9.30;5.72;;;10.90;99.90;;;;;;5075087;28;20390;-81
2023/03/31 06:16:28;;;;;;;6.97;5.60;;;10.50;99.90;;;;;;5074245;28;20383;-84
2023/03/31 06:18:54;;;;;;;8.73;6.00;;;10.30;99.90;;;;;;5076497;28;20410;-83
2023/03/31 06:21:20;;;;;;;6.57;5.18;;;10.30;99.90;;;;;;5079610;28;20405;-84
2023/03/31 06:23:46;;;;;;;10.95;5.72;;;10.30;99.90;;;;;;5095304;28;20386;-84
2023/03/31 06:26:14;;;;;;;8.03;5.83;;;10.30;99.90;;;;;;5077909;28;20404;-84
2023/03/31 06:28:40;;;;;;;8.65;5.70;;;10.30;99.90;;;;;;5073544;28;20800;-84
2023/03/31 06:31:08;;;;;;;6.80;6.00;;;10.30;99.90;;;;;;5094605;28;20413;-84
2023/03/31 06:33:34;;;;;;;8.30;5.93;;;10.40;99.90;;;;;;5095535;28;20471;-83
2023/03/31 06:36:02;;;;;;;9.05;5.20;;;10.50;99.90;;;;;;5094620;28;20387;-84
2023/03/31 06:38:29;;;;;;;5.07;3.58;;;10.40;99.90;;;;;;5081392;28;20406;-82
2023/03/31 06:40:54;;;;;;;6.47;2.60;;;10.40;99.90;;;;;;5105924;28;20381;-83
2023/03/31 06:43:20;;;;;;;4.00;2.83;;;10.30;99.90;;;;;;5096104;28;20768;-83
2023/03/31 06:45:46;;;;;;;3.10;2.40;;;10.40;99.90;;;;;;5076503;28;20380;-84
2023/03/31 06:48:12;;;;;;;4.22;2.20;;;10.30;99.90;;;;;;5076527;28;20394;-83
2023/03/31 06:50:40;;;;;;;2.50;1.60;;;10.30;99.90;;;;;;5091051;28;20895;-83
2023/03/31 06:53:07;;;;;;;2.30;1.63;;;10.40;99.90;;;;;;5091993;28;20401;-83
2023/03/31 06:55:33;;;;;;;2.10;1.30;;;10.30;99.90;;;;;;5094217;28;20748;-84
2023/03/31 06:57:58;;;;;;;2.30;1.50;;;10.40;99.90;;;;;;5094427;28;20393;-82
2023/03/31 07:00:25;;;;;;;2.13;1.50;;;10.30;99.90;;;;;;5094512;28;20800;-83
2023/03/31 07:02:51;;;;;;;2.00;1.60;;;10.20;99.90;;;;;;5095409;28;20428;-83
2023/03/31 07:05:18;;;;;;;1.80;1.60;;;10.10;99.90;;;;;;5076897;28;20718;-85
2023/03/31 07:07:44;;;;;;;2.63;1.70;;;10.50;99.90;;;;;;5076897;28;20382;-84
2023/03/31 07:10:09;;;;;;;2.80;1.40;;;10.50;99.90;;;;;;5095655;28;20413;-84
2023/03/31 07:12:35;;;;;;;1.80;1.60;;;10.50;99.90;;;;;;5091489;28;20378;-85
2023/03/31 07:15:01;;;;;;;6.07;4.10;;;10.60;99.90;;;;;;5094854;28;20374;-85
2023/03/31 07:17:26;;;;;;;2.17;1.52;;;10.80;99.90;;;;;;5075801;28;20383;-84
2023/03/31 07:19:52;;;;;;;5.10;3.30;;;11.00;99.90;;;;;;5093704;28;20398;-85
2023/03/31 07:22:17;;;;;;;4.90;3.20;;;11.10;99.90;;;;;;5094796;28;20382;-84
2023/03/31 07:24:43;;;;;;;1.95;1.55;;;11.30;99.90;;;;;;5092258;28;20998;-83
2023/03/31 07:27:08;;;;;;;3.58;1.67;;;11.30;99.90;;;;;;5093452;28;20390;-83
2023/03/31 07:29:34;;;;;;;2.22;1.17;;;11.40;99.90;;;;;;5092761;28;20385;-86
2023/03/31 07:32:00;;;;;;;2.20;0.93;;;11.60;99.90;;;;;;5088863;28;20765;-85
2023/03/31 07:34:26;;;;;;;2.00;1.30;;;11.70;99.90;;;;;;5073830;28;20382;-84
2023/03/31 07:36:54;;;;;;;2.78;1.13;;;11.70;99.90;;;;;;5092661;28;20404;-84
2023/03/31 07:39:21;;;;;;;2.35;1.20;;;11.70;99.90;;;;;;5108156;22;20452;-87
2023/03/31 07:41:47;;;;;;;2.50;1.20;;;11.80;99.90;;;;;;5127565;27;20380;-89
2023/03/31 07:44:12;;;;;;;3.70;1.20;;;11.80;99.90;;;;;;5112695;27;20453;-88
2023/03/31 07:46:39;;;;;;;3.50;1.20;;;11.90;99.90;;;;;;5169334;22;20432;-91
2023/03/31 07:49:06;;;;;;;1.90;1.13;;;12.20;99.90;;;;;;5097381;28;20397;-88
2023/03/31 07:51:31;;;;;;;3.20;1.10;;;12.10;99.90;;;;;;5100342;28;20374;-89
2023/03/31 07:53:57;;;;;;;2.85;1.30;;;12.10;99.90;;;;;;5079549;28;20379;-89
2023/03/31 07:56:24;;;;;;;1.60;1.23;;;12.30;99.90;;;;;;5053731;28;20488;-89
2023/03/31 07:58:51;;;;;;;1.42;1.20;;;12.30;99.90;;;;;;5036469;28;20467;-88
2023/03/31 08:01:19;;;;;;;1.60;1.40;;;12.40;99.90;;;;;;5075013;28;20467;-89
2023/03/31 08:03:46;;;;;;;4.20;2.47;;;12.40;99.90;;;;;;5077150;28;20393;-86
2023/03/31 08:06:17;;;;;;;5.35;3.17;;;12.50;99.90;;;;;;5089932;28;20405;-87
2023/03/31 08:08:43;;;;;;;3.95;2.63;;;12.50;99.90;;;;;;5067281;28;20387;-88
2023/03/31 08:11:09;;;;;;;2.67;1.67;;;12.60;99.90;;;;;;5082521;28;20394;-86
2023/03/31 08:13:35;;;;;;;2.22;1.33;;;12.50;99.90;;;;;;5098311;28;20436;-87
2023/03/31 08:16:00;;;;;;;2.95;1.23;;;12.60;99.90;;;;;;5068276;28;20431;-87
2023/03/31 08:18:26;;;;;;;2.07;1.17;;;12.60;99.90;;;;;;5078725;28;20410;-87
2023/03/31 08:20:51;;;;;;;5.17;1.87;;;12.70;99.90;;;;;;5076366;28;20498;-88
2023/03/31 08:23:17;;;;;;;4.78;2.10;;;13.00;99.90;;;;;;5069793;28;20387;-84
2023/03/31 08:25:42;;;;;;;4.73;2.10;;;13.10;99.90;;;;;;5070643;28;20392;-85
2023/03/31 08:28:12;;;;;;;3.27;1.30;;;13.20;99.90;;;;;;5090743;28;20395;-84
2023/03/31 08:30:39;;;;;;;3.50;1.70;;;13.40;99.90;;;;;;5071738;28;20394;-87
2023/03/31 08:33:06;;;;;;;3.22;1.50;;;13.40;99.90;;;;;;5072359;28;20413;-84
2023/03/31 08:35:32;;;;;;;3.33;1.70;;;13.60;99.90;;;;;;5069918;28;20380;-84
2023/03/31 08:37:58;;;;;;;4.18;2.08;;;13.50;99.90;;;;;;5088362;28;20406;-85
2023/03/31 08:40:26;;;;;;;4.30;1.80;;;13.60;99.90;;;;;;5063809;28;20423;-86
2023/03/31 08:43:26;;;;;;;3.80;1.42;;;13.70;99.90;;;;;;5080777;28;20383;-85
2023/03/31 08:45:52;;;;;;;2.67;1.52;;;13.80;99.90;;;;;;5038075;28;20405;-84
2023/03/31 08:48:44;;;;;;;6.72;2.30;;;13.90;99.90;;;;;;5042237;28;20386;-86
2023/03/31 08:51:20;;;;;;;3.35;1.30;;;13.90;99.90;;;;;;5060438;28;20393;-85
2023/03/31 08:54:03;;;;;;;6.57;1.90;;;14.00;99.90;;;;;;5058614;28;20476;-86
2023/03/31 08:56:32;;;;;;;4.47;1.60;;;14.10;99.90;;;;;;5042279;28;20390;-86
2023/03/31 08:59:01;;;;;;;5.45;1.85;;;14.20;99.20;;;;;;5041794;28;20938;-86
2023/03/31 09:01:46;;;;;;;5.07;1.90;;;14.20;97.90;;;;;;5044477;28;20381;-86
2023/03/31 09:04:29;;;;;;;3.97;1.40;;;14.30;93.00;;;;;;5079354;28;20445;-89
2023/03/31 09:07:22;;;;;;;4.35;1.60;;;14.20;93.20;;;;;;5079254;28;20369;-88
2023/03/31 09:10:02;;;;;;;2.95;1.30;;;14.30;85.60;;;;;;5070252;28;20396;-86
2023/03/31 09:12:37;;;;;;;8.15;1.70;;;14.40;90.50;;;;;;5066324;28;20481;-85
2023/03/31 09:15:11;;;;;;;3.95;1.60;;;14.30;91.90;;;;;;5062370;28;20388;-87
2023/03/31 09:17:50;;;;;;;3.58;1.60;;;14.30;89.80;;;;;;5058451;28;20385;-86
2023/03/31 09:20:29;;;;;;;6.47;2.17;;;14.20;89.00;;;;;;5059883;28;20400;-86
2023/03/31 09:23:13;;;;;;;2.78;1.40;;;14.20;90.50;;;;;;5057446;28;20370;-85
2023/03/31 09:25:40;;;;;;;4.82;1.80;;;14.20;84.10;;;;;;5060740;28;20403;-85
2023/03/31 09:28:17;;;;;;;5.70;1.70;;;14.20;75.10;;;;;;5058329;28;20385;-85
2023/03/31 09:30:43;;;;;;;5.78;1.58;;;14.30;80.20;;;;;;5053239;28;20392;-86
2023/03/31 09:33:14;;;;;;;4.80;1.30;;;14.20;85.60;;;;;;5050651;28;20384;-86
2023/03/31 09:35:40;;;;;;;2.58;1.10;;;14.20;87.90;;;;;;5069623;28;20379;-85
2023/03/31 09:38:05;;;;;;;2.05;1.02;;;14.40;90.30;;;;;;5072534;28;20418;-84
2023/03/31 09:40:31;;;;;;;2.70;1.35;;;14.30;86.90;;;;;;5072414;28;20465;-87
2023/03/31 09:43:20;;;;;;;2.93;1.30;;;14.30;80.40;;;;;;5074094;28;20502;-85
2023/03/31 09:45:46;;;;;;;4.25;1.27;;;14.40;81.60;;;;;;5064730;28;20446;-85
2023/03/31 09:48:17;;;;;;;4.10;1.33;;;14.60;71.30;;;;;;5071364;28;20889;-85
2023/03/31 09:50:49;;;;;;;4.25;1.50;;;14.60;68.30;;;;;;5065641;28;20480;-86
2023/03/31 09:53:38;;;;;;;3.60;1.20;;;14.60;59.80;;;;;;5068239;28;20475;-87
2023/03/31 09:56:10;;;;;;;4.10;1.60;;;14.70;53.80;;;;;;5075595;28;20380;-85
2023/03/31 09:58:41;;;;;;;7.13;1.98;;;14.80;49.20;;;;;;5059976;28;20415;-86
2023/03/31 10:01:08;;;;;;;6.43;2.00;;;14.90;44.00;;;;;;5078176;28;20376;-85
2023/03/31 10:03:50;;;;;;;4.95;1.50;;;14.90;42.90;;;;;;5052469;28;20387;-85
2023/03/31 10:06:16;;;;;;;5.80;1.90;;;15.10;42.00;;;;;;5072463;28;20395;-85
2023/03/31 10:08:49;;;;;;;5.70;1.60;;;15.20;38.30;;;;;;5069696;28;20382;-85
2023/03/31 10:11:15;;;;;;;3.97;1.45;;;15.20;37.60;;;;;;5070477;28;20380;-85
2023/03/31 10:14:03;;;;;;;5.10;1.50;;;15.30;33.90;;;;;;5051811;28;20388;-85
2023/03/31 10:16:42;;;;;;;5.60;1.60;;;15.10;35.80;;;;;;5047709;28;20382;-85
2023/03/31 10:19:32;;;;;;;6.00;1.70;;;15.10;33.60;;;;;;5047724;28;20413;-85
2023/03/31 10:22:21;;;;;;;5.63;1.40;;;15.30;31.00;;;;;;5071881;28;20389;-85
2023/03/31 10:24:50;;;;;;;4.20;1.63;;;15.10;32.60;;;;;;5040319;28;20445;-85
2023/03/31 10:27:26;;;;;;;4.15;1.63;;;15.20;27.60;;;;;;5067769;28;20398;-86
2023/03/31 10:30:03;;;;;;;4.32;1.10;;;15.30;27.60;;;;;;5064041;28;20393;-85
2023/03/31 10:32:38;;;;;;;5.05;1.77;;;15.10;25.90;;;;;;5063729;28;20794;-85
2023/03/31 10:35:10;;;;;;;3.70;1.20;;;15.20;26.30;;;;;;5044806;28;20389;-85
2023/03/31 10:37:36;;;;;;;5.47;1.60;;;15.20;26.50;;;;;;5046864;28;20392;-85
2023/03/31 10:40:16;;;;;;;3.23;1.17;;;15.30;25.80;;;;;;5086378;28;20422;-85
2023/03/31 10:42:46;;;;;;;4.78;1.35;;;15.30;26.60;;;;;;5070489;28;20408;-85
2023/03/31 10:45:25;;;;;;;2.13;1.10;;;15.30;27.10;;;;;;5066216;28;20411;-84
2023/03/31 10:47:57;;;;;;;3.00;1.45;;;15.10;28.30;;;;;;5084720;28;20381;-86
2023/03/31 10:50:33;;;;;;;3.72;1.00;;;14.90;26.80;;;;;;5091419;28;20407;-86
2023/03/31 10:53:10;;;;;;;4.90;1.43;;;15.00;27.90;;;;;;5075506;28;20383;-83
2023/03/31 10:55:45;;;;;;;4.30;1.30;;;15.20;27.50;;;;;;5068405;28;20389;-85
2023/03/31 10:58:33;;;;;;;3.08;1.55;;;15.10;27.20;;;;;;5085774;28;20405;-85
2023/03/31 11:01:06;;;;;;;4.47;1.58;;;15.30;27.30;;;;;;5085185;28;20371;-85
2023/03/31 11:03:43;;;;;;;3.55;1.40;;;15.30;26.50;;;;;;5055777;28;20436;-86
2023/03/31 11:06:46;;;;;;;4.55;1.60;;;15.20;25.80;;;;;;5064803;28;20488;-86
2023/03/31 11:09:49;;;;;;;3.20;1.53;;;15.50;26.20;;;;;;5045094;28;20387;-86
2023/03/31 11:12:50;;;;;;;3.35;1.40;;;15.50;26.10;;;;;;5054122;28;20894;-86
2023/03/31 11:15:47;;;;;;;4.17;1.50;;;15.40;26.70;;;;;;5051236;28;20424;-86
2023/03/31 11:18:34;;;;;;;4.25;1.80;;;15.30;25.50;;;;;;5047805;28;20416;-86
2023/03/31 11:21:39;;;;;;;4.83;1.40;;;15.00;24.30;;;;;;5046560;28;20386;-87
2023/03/31 11:24:20;;;;;;;2.65;1.40;;;14.80;28.00;;;;;;5018257;28;20798;-86
2023/03/31 11:27:20;;;;;;;2.92;1.10;;;14.40;34.60;;;;;;5057699;28;20403;-88
2023/03/31 11:30:05;;;;;;;3.38;1.70;;;14.20;36.20;;;;;;5045396;28;20393;-86
2023/03/31 11:32:56;;;;;;;3.13;1.15;;;14.60;29.20;;;;;;5053951;28;20390;-85
2023/03/31 11:36:06;;;;;;;5.45;1.00;;;15.20;25.70;;;;;;5065492;28;20402;-86
2023/03/31 11:38:52;;;;;;;2.10;0.97;;;15.40;23.60;;;;;;5061599;28;20466;-87
2023/03/31 11:41:56;;;;;;;3.80;1.20;;;15.60;22.90;;;;;;5054274;28;20388;-86
2023/03/31 11:44:41;;;;;;;3.67;1.13;;;15.30;23.10;;;;;;5051475;28;20944;-86
2023/03/31 11:47:19;;;;;;;2.60;0.90;;;15.80;23.20;;;;;;5063368;28;20481;-86
2023/03/31 11:49:53;;;;;;;4.00;1.20;;;14.90;23.90;;;;;;5045283;28;20407;-86
2023/03/31 11:52:29;;;;;;;4.43;1.00;;;16.00;25.70;;;;;;5066238;28;20381;-86
2023/03/31 11:55:15;;;;;;;5.20;1.10;;;14.20;26.40;;;;;;5067258;28;20385;-86
2023/03/31 11:58:07;;;;;;;2.35;1.60;;;13.30;28.90;;;;;;5060298;28;20389;-86
2023/03/31 12:01:06;;;;;;;1.30;0.80;;;12.70;35.50;;;;;;5046545;28;20415;-85
2023/03/31 12:04:06;;;;;;;3.35;0.63;;;12.20;46.80;;;;;;5028536;28;20399;-89
2023/03/31 12:06:38;;;;;;;1.50;0.70;;;12.30;47.30;;;;;;5043844;28;20388;-88
2023/03/31 12:09:22;;;;;;;0.80;0.50;;;13.20;31.00;;;;;;5049501;28;20404;-88
2023/03/31 12:12:11;;;;;;;1.65;0.60;;;13.00;25.80;;;;;;5049924;28;20918;-87
2023/03/31 12:14:42;;;;;;;0.85;0.68;;;13.20;27.10;;;;;;5050398;28;20391;-85
2023/03/31 12:20:32;;;;;;;2.25;0.70;;;13.20;27.60;;;;;;5223526;22;20523;-86
2023/03/31 12:23:09;;;;;;;3.42;0.68;;;13.30;27.40;;;;;;5082548;28;20837;-85
2023/03/31 12:25:56;;;;;;;1.80;0.50;;;13.40;27.60;;;;;;5085966;28;20441;-86
2023/03/31 12:28:23;;;;;;;1.75;0.50;;;13.60;28.00;;;;;;5100338;28;20408;-87
2023/03/31 12:30:49;;;;;;;1.57;0.67;;;14.10;26.70;;;;;;5071932;28;20877;-86
2023/03/31 12:33:24;;;;;;;2.70;0.80;;;15.10;24.90;;;;;;5067273;28;20387;-87
2023/03/31 12:36:21;;;;;;;1.85;1.00;;;15.50;23.30;;;;;;5068307;28;20792;-85
2023/03/31 12:39:13;;;;;;;2.13;0.90;;;15.50;22.70;;;;;;5092423;28;20379;-87
2023/03/31 12:42:12;;;;;;;3.60;0.90;;;15.70;24.00;;;;;;5085421;28;20371;-85
2023/03/31 12:45:00;;;;;;;2.65;1.00;;;14.50;25.50;;;;;;5070865;28;20384;-86
2023/03/31 12:47:55;;;;;;;4.40;1.20;;;14.80;27.20;;;;;;5090780;28;20469;-87
2023/03/31 12:50:55;;;;;;;2.20;1.10;;;15.40;27.00;;;;;;5071045;28;20919;-87
2023/03/31 12:54:02;;;;;;;3.78;0.93;;;16.90;22.30;;;;;;5083560;28;20377;-86
2023/03/31 12:59:31;;;;;;;2.63;0.93;;;15.50;25.60;;;;;;5099451;22;20415;-87
2023/03/31 13:02:18;;;;;;;2.10;0.90;;;15.30;27.40;;;;;;5084148;28;20396;-87
2023/03/31 13:04:44;;;;;;;2.27;1.20;;;15.40;26.60;;;;;;5071303;28;20852;-87
2023/03/31 13:07:34;;;;;;;2.42;1.08;;;16.20;27.00;;;;;;5061817;28;20382;-88
2023/03/31 13:10:30;;;;;;;4.50;1.40;;;15.50;27.20;;;;;;5059614;28;20500;-88
2023/03/31 13:13:06;;;;;;;2.97;0.90;;;15.20;29.00;;;;;;5042628;28;20775;-86
2023/03/31 13:15:32;;;;;;;4.07;1.10;;;15.00;29.80;;;;;;5061152;28;20386;-85
2023/03/31 13:18:00;;;;;;;4.22;1.30;;;14.70;30.70;;;;;;5061709;28;20395;-87
2023/03/31 13:20:30;;;;;;;3.90;1.50;;;14.60;31.10;;;;;;5065502;28;20447;-86
2023/03/31 13:23:11;;;;;;;5.40;1.27;;;15.50;31.90;;;;;;5071733;28;20368;-86
2023/03/31 13:25:48;;;;;;;3.05;1.30;;;14.40;34.10;;;;;;5067660;28;21134;-85